sensor_id;sensor_type;location;lat;lon;timestamp;temperature;humidity
20610;DHT22;10463;52.378;9.688;2023-07-02T00:00:49;29.60;28.50
20610;DHT22;10463;52.378;9.688;2023-07-02T00:03:37;29.60;28.50
20610;DHT22;10463;52.378;9.688;2023-07-02T00:06:22;29.60;28.50
20610;DHT22;10463;52.378;9.688;2023-07-02T00:09:07;29.60;28.50
20610;DHT22;10463;52.378;9.688;2023-07-02T00:11:52;29.60;28.50
20610;DHT22;10463;52.378;9.688;2023-07-02T00:14:37;29.60;28.50
20610;DHT22;10463;52.378;9.688;2023-07-02T00:17:23;29.50;28.40
20610;DHT22;10463;52.378;9.688;2023-07-02T00:20:09;29.60;28.50
20610;DHT22;10463;52.378;9.688;2023-07-02T00:23:01;29.60;28.50
20610;DHT22;10463;52.378;9.688;2023-07-02T00:25:46;29.60;28.50
20610;DHT22;10463;52.378;9.688;2023-07-02T00:28:31;29.50;28.40
20610;DHT22;10463;52.378;9.688;2023-07-02T00:31:15;29.60;28.40
20610;DHT22;10463;52.378;9.688;2023-07-02T00:34:03;29.60;28.40
20610;DHT22;10463;52.378;9.688;2023-07-02T00:36:48;29.50;28.40
20610;DHT22;10463;52.378;9.688;2023-07-02T00:39:33;29.60;28.40
20610;DHT22;10463;52.378;9.688;2023-07-02T00:42:17;29.50;28.30
20610;DHT22;10463;52.378;9.688;2023-07-02T00:45:04;29.50;28.30
20610;DHT22;10463;52.378;9.688;2023-07-02T00:47:49;29.50;28.30
20610;DHT22;10463;52.378;9.688;2023-07-02T00:50:35;29.50;28.30
20610;DHT22;10463;52.378;9.688;2023-07-02T00:53:21;29.60;28.40
20610;DHT22;10463;52.378;9.688;2023-07-02T00:56:06;29.50;28.30
20610;DHT22;10463;52.378;9.688;2023-07-02T00:58:53;29.50;28.30
20610;DHT22;10463;52.378;9.688;2023-07-02T01:01:38;29.50;28.30
20610;DHT22;10463;52.378;9.688;2023-07-02T01:04:24;29.50;28.80
20610;DHT22;10463;52.378;9.688;2023-07-02T01:07:13;29.50;28.30
20610;DHT22;10463;52.378;9.688;2023-07-02T01:09:58;29.50;28.30
20610;DHT22;10463;52.378;9.688;2023-07-02T01:12:45;29.50;28.20
20610;DHT22;10463;52.378;9.688;2023-07-02T01:15:31;29.50;28.20
20610;DHT22;10463;52.378;9.688;2023-07-02T01:18:16;29.50;28.20
20610;DHT22;10463;52.378;9.688;2023-07-02T01:21:02;29.50;28.20
20610;DHT22;10463;52.378;9.688;2023-07-02T01:23:51;29.50;28.20
20610;DHT22;10463;52.378;9.688;2023-07-02T01:26:36;29.50;28.20
20610;DHT22;10463;52.378;9.688;2023-07-02T01:29:21;29.50;28.20
20610;DHT22;10463;52.378;9.688;2023-07-02T01:32:07;29.50;28.20
20610;DHT22;10463;52.378;9.688;2023-07-02T01:34:59;29.50;28.20
20610;DHT22;10463;52.378;9.688;2023-07-02T01:37:46;29.50;28.20
20610;DHT22;10463;52.378;9.688;2023-07-02T01:40:31;29.50;28.20
20610;DHT22;10463;52.378;9.688;2023-07-02T01:43:16;29.50;28.20
20610;DHT22;10463;52.378;9.688;2023-07-02T01:46:00;29.50;28.10
20610;DHT22;10463;52.378;9.688;2023-07-02T01:48:46;29.50;28.10
20610;DHT22;10463;52.378;9.688;2023-07-02T01:51:31;29.50;28.10
20610;DHT22;10463;52.378;9.688;2023-07-02T01:54:18;29.50;28.10
20610;DHT22;10463;52.378;9.688;2023-07-02T01:57:03;29.50;28.10
20610;DHT22;10463;52.378;9.688;2023-07-02T01:59:48;29.50;28.10
20610;DHT22;10463;52.378;9.688;2023-07-02T02:02:33;29.50;28.10
20610;DHT22;10463;52.378;9.688;2023-07-02T02:05:17;29.50;28.10
20610;DHT22;10463;52.378;9.688;2023-07-02T02:08:03;29.50;28.10
20610;DHT22;10463;52.378;9.688;2023-07-02T02:10:49;29.50;28.10
20610;DHT22;10463;52.378;9.688;2023-07-02T02:13:34;29.50;28.10
20610;DHT22;10463;52.378;9.688;2023-07-02T02:16:20;29.50;28.00
20610;DHT22;10463;52.378;9.688;2023-07-02T02:19:05;29.50;28.00
20610;DHT22;10463;52.378;9.688;2023-07-02T02:21:50;29.50;28.00
20610;DHT22;10463;52.378;9.688;2023-07-02T02:24:34;29.50;28.50
20610;DHT22;10463;52.378;9.688;2023-07-02T02:27:20;29.50;28.00
20610;DHT22;10463;52.378;9.688;2023-07-02T02:30:07;29.40;28.50
20610;DHT22;10463;52.378;9.688;2023-07-02T02:32:53;29.40;27.90
20610;DHT22;10463;52.378;9.688;2023-07-02T02:35:38;29.40;27.90
20610;DHT22;10463;52.378;9.688;2023-07-02T02:38:24;29.40;27.90
20610;DHT22;10463;52.378;9.688;2023-07-02T02:41:09;29.40;27.90
20610;DHT22;10463;52.378;9.688;2023-07-02T02:43:59;29.40;27.90
20610;DHT22;10463;52.378;9.688;2023-07-02T02:46:44;29.40;27.90
20610;DHT22;10463;52.378;9.688;2023-07-02T02:49:28;29.40;27.90
20610;DHT22;10463;52.378;9.688;2023-07-02T02:52:13;29.40;27.90
20610;DHT22;10463;52.378;9.688;2023-07-02T02:54:59;29.40;27.90
20610;DHT22;10463;52.378;9.688;2023-07-02T02:57:43;29.40;27.90
20610;DHT22;10463;52.378;9.688;2023-07-02T03:00:30;29.40;27.80
20610;DHT22;10463;52.378;9.688;2023-07-02T03:03:14;29.40;27.80
20610;DHT22;10463;52.378;9.688;2023-07-02T03:06:01;29.40;27.80
20610;DHT22;10463;52.378;9.688;2023-07-02T03:08:46;29.40;27.80
20610;DHT22;10463;52.378;9.688;2023-07-02T03:11:31;29.40;27.80
20610;DHT22;10463;52.378;9.688;2023-07-02T03:14:16;29.40;27.80
20610;DHT22;10463;52.378;9.688;2023-07-02T03:17:02;29.40;27.80
20610;DHT22;10463;52.378;9.688;2023-07-02T03:19:47;29.40;27.80
20610;DHT22;10463;52.378;9.688;2023-07-02T03:22:32;29.40;27.80
20610;DHT22;10463;52.378;9.688;2023-07-02T03:25:17;29.40;27.80
20610;DHT22;10463;52.378;9.688;2023-07-02T03:28:02;29.40;27.80
20610;DHT22;10463;52.378;9.688;2023-07-02T03:30:47;29.30;27.80
20610;DHT22;10463;52.378;9.688;2023-07-02T03:33:33;29.40;27.80
20610;DHT22;10463;52.378;9.688;2023-07-02T03:36:18;29.40;27.80
20610;DHT22;10463;52.378;9.688;2023-07-02T03:39:03;29.30;27.80
20610;DHT22;10463;52.378;9.688;2023-07-02T03:41:48;29.30;27.80
20610;DHT22;10463;52.378;9.688;2023-07-02T03:44:33;29.30;27.80
20610;DHT22;10463;52.378;9.688;2023-07-02T03:47:17;29.30;27.80
20610;DHT22;10463;52.378;9.688;2023-07-02T03:50:06;29.30;27.80
20610;DHT22;10463;52.378;9.688;2023-07-02T03:52:51;29.30;27.80
20610;DHT22;10463;52.378;9.688;2023-07-02T03:55:36;29.30;27.80
20610;DHT22;10463;52.378;9.688;2023-07-02T03:58:21;29.30;27.80
20610;DHT22;10463;52.378;9.688;2023-07-02T04:01:05;29.30;27.80
20610;DHT22;10463;52.378;9.688;2023-07-02T04:03:52;29.30;27.80
20610;DHT22;10463;52.378;9.688;2023-07-02T04:06:38;29.30;27.80
20610;DHT22;10463;52.378;9.688;2023-07-02T04:09:23;29.30;27.80
20610;DHT22;10463;52.378;9.688;2023-07-02T04:12:08;29.30;27.80
20610;DHT22;10463;52.378;9.688;2023-07-02T04:14:53;29.30;27.80
20610;DHT22;10463;52.378;9.688;2023-07-02T04:17:37;29.30;27.80
20610;DHT22;10463;52.378;9.688;2023-07-02T04:20:22;29.30;27.80
20610;DHT22;10463;52.378;9.688;2023-07-02T04:23:08;29.30;27.80
20610;DHT22;10463;52.378;9.688;2023-07-02T04:25:52;29.20;27.80
20610;DHT22;10463;52.378;9.688;2023-07-02T04:28:37;29.30;27.80
20610;DHT22;10463;52.378;9.688;2023-07-02T04:31:22;29.30;27.80
20610;DHT22;10463;52.378;9.688;2023-07-02T04:34:06;29.30;27.80
20610;DHT22;10463;52.378;9.688;2023-07-02T04:36:51;29.30;28.10
20610;DHT22;10463;52.378;9.688;2023-07-02T04:39:37;29.30;27.80
20610;DHT22;10463;52.378;9.688;2023-07-02T04:42:21;29.30;27.80
20610;DHT22;10463;52.378;9.688;2023-07-02T04:45:08;29.30;27.80
20610;DHT22;10463;52.378;9.688;2023-07-02T04:47:53;29.30;27.80
20610;DHT22;10463;52.378;9.688;2023-07-02T04:50:38;29.30;27.80
20610;DHT22;10463;52.378;9.688;2023-07-02T04:53:22;29.30;27.80
20610;DHT22;10463;52.378;9.688;2023-07-02T04:56:08;29.30;27.80
20610;DHT22;10463;52.378;9.688;2023-07-02T04:58:53;29.20;27.70
20610;DHT22;10463;52.378;9.688;2023-07-02T05:01:38;29.30;27.80
20610;DHT22;10463;52.378;9.688;2023-07-02T05:04:23;29.20;27.70
20610;DHT22;10463;52.378;9.688;2023-07-02T05:07:07;29.20;27.70
20610;DHT22;10463;52.378;9.688;2023-07-02T05:09:52;29.20;27.70
20610;DHT22;10463;52.378;9.688;2023-07-02T05:12:38;29.20;27.70
20610;DHT22;10463;52.378;9.688;2023-07-02T05:15:24;29.20;27.70
20610;DHT22;10463;52.378;9.688;2023-07-02T05:18:08;29.20;27.70
20610;DHT22;10463;52.378;9.688;2023-07-02T05:20:54;29.20;28.20
20610;DHT22;10463;52.378;9.688;2023-07-02T05:23:39;29.20;27.60
20610;DHT22;10463;52.378;9.688;2023-07-02T05:26:23;29.20;27.60
20610;DHT22;10463;52.378;9.688;2023-07-02T05:29:10;29.20;27.60
20610;DHT22;10463;52.378;9.688;2023-07-02T05:31:55;29.20;28.10
20610;DHT22;10463;52.378;9.688;2023-07-02T05:34:39;29.20;27.60
20610;DHT22;10463;52.378;9.688;2023-07-02T05:37:24;29.20;27.60
20610;DHT22;10463;52.378;9.688;2023-07-02T05:40:09;29.20;27.60
20610;DHT22;10463;52.378;9.688;2023-07-02T05:42:54;29.20;28.10
20610;DHT22;10463;52.378;9.688;2023-07-02T05:45:40;29.20;27.60
20610;DHT22;10463;52.378;9.688;2023-07-02T05:48:25;29.20;27.60
20610;DHT22;10463;52.378;9.688;2023-07-02T05:51:09;29.20;27.50
20610;DHT22;10463;52.378;9.688;2023-07-02T05:53:54;29.20;27.50
20610;DHT22;10463;52.378;9.688;2023-07-02T05:56:39;29.20;27.60
20610;DHT22;10463;52.378;9.688;2023-07-02T05:59:23;29.20;27.60
20610;DHT22;10463;52.378;9.688;2023-07-02T06:02:09;29.20;27.50
20610;DHT22;10463;52.378;9.688;2023-07-02T06:04:54;29.20;27.60
20610;DHT22;10463;52.378;9.688;2023-07-02T06:07:38;29.20;27.50
20610;DHT22;10463;52.378;9.688;2023-07-02T06:10:23;29.20;27.50
20610;DHT22;10463;52.378;9.688;2023-07-02T06:13:08;29.20;27.60
20610;DHT22;10463;52.378;9.688;2023-07-02T06:15:52;29.20;27.50
20610;DHT22;10463;52.378;9.688;2023-07-02T06:18:38;29.20;27.50
20610;DHT22;10463;52.378;9.688;2023-07-02T06:21:23;29.20;27.60
20610;DHT22;10463;52.378;9.688;2023-07-02T06:24:13;29.20;27.50
20610;DHT22;10463;52.378;9.688;2023-07-02T06:26:59;29.20;27.50
20610;DHT22;10463;52.378;9.688;2023-07-02T06:29:43;29.20;27.50
20610;DHT22;10463;52.378;9.688;2023-07-02T06:32:28;29.20;27.50
20610;DHT22;10463;52.378;9.688;2023-07-02T06:35:14;29.20;28.10
20610;DHT22;10463;52.378;9.688;2023-07-02T06:37:59;29.20;27.50
20610;DHT22;10463;52.378;9.688;2023-07-02T06:40:44;29.20;27.50
20610;DHT22;10463;52.378;9.688;2023-07-02T06:43:29;29.20;27.50
20610;DHT22;10463;52.378;9.688;2023-07-02T06:46:13;29.20;27.60
20610;DHT22;10463;52.378;9.688;2023-07-02T06:48:58;29.20;28.10
20610;DHT22;10463;52.378;9.688;2023-07-02T06:51:45;29.20;27.50
20610;DHT22;10463;52.378;9.688;2023-07-02T06:54:30;29.20;27.60
20610;DHT22;10463;52.378;9.688;2023-07-02T06:57:16;29.20;27.50
20610;DHT22;10463;52.378;9.688;2023-07-02T07:00:01;29.20;27.50
20610;DHT22;10463;52.378;9.688;2023-07-02T07:02:45;29.20;28.00
20610;DHT22;10463;52.378;9.688;2023-07-02T07:05:30;29.20;27.50
20610;DHT22;10463;52.378;9.688;2023-07-02T07:08:17;29.20;27.50
20610;DHT22;10463;52.378;9.688;2023-07-02T07:11:02;29.20;27.50
20610;DHT22;10463;52.378;9.688;2023-07-02T07:13:47;29.20;27.50
20610;DHT22;10463;52.378;9.688;2023-07-02T07:16:32;29.20;27.50
20610;DHT22;10463;52.378;9.688;2023-07-02T07:19:17;29.20;27.50
20610;DHT22;10463;52.378;9.688;2023-07-02T07:22:02;29.20;27.50
20610;DHT22;10463;52.378;9.688;2023-07-02T07:24:48;29.20;27.50
20610;DHT22;10463;52.378;9.688;2023-07-02T07:27:32;29.20;27.50
20610;DHT22;10463;52.378;9.688;2023-07-02T07:30:17;29.20;27.50
20610;DHT22;10463;52.378;9.688;2023-07-02T07:33:06;29.20;27.50
20610;DHT22;10463;52.378;9.688;2023-07-02T07:35:51;29.20;27.50
20610;DHT22;10463;52.378;9.688;2023-07-02T07:38:35;29.20;27.50
20610;DHT22;10463;52.378;9.688;2023-07-02T07:41:22;29.20;27.50
20610;DHT22;10463;52.378;9.688;2023-07-02T07:44:07;29.20;27.40
20610;DHT22;10463;52.378;9.688;2023-07-02T07:46:51;29.20;27.40
20610;DHT22;10463;52.378;9.688;2023-07-02T07:49:36;29.20;27.40
20610;DHT22;10463;52.378;9.688;2023-07-02T07:52:21;29.20;27.40
20610;DHT22;10463;52.378;9.688;2023-07-02T07:55:06;29.20;27.40
20610;DHT22;10463;52.378;9.688;2023-07-02T07:57:52;29.20;27.40
20610;DHT22;10463;52.378;9.688;2023-07-02T08:00:37;29.20;27.40
20610;DHT22;10463;52.378;9.688;2023-07-02T08:03:22;29.20;27.50
20610;DHT22;10463;52.378;9.688;2023-07-02T08:06:07;29.20;27.40
20610;DHT22;10463;52.378;9.688;2023-07-02T08:08:51;29.20;27.40
20610;DHT22;10463;52.378;9.688;2023-07-02T08:11:36;29.20;27.40
20610;DHT22;10463;52.378;9.688;2023-07-02T08:14:21;29.20;27.40
20610;DHT22;10463;52.378;9.688;2023-07-02T08:17:06;29.20;27.40
20610;DHT22;10463;52.378;9.688;2023-07-02T08:19:51;29.20;27.40
20610;DHT22;10463;52.378;9.688;2023-07-02T08:22:35;29.20;27.40
20610;DHT22;10463;52.378;9.688;2023-07-02T08:25:21;29.20;27.40
20610;DHT22;10463;52.378;9.688;2023-07-02T08:28:06;29.20;27.40
20610;DHT22;10463;52.378;9.688;2023-07-02T08:30:52;29.20;27.40
20610;DHT22;10463;52.378;9.688;2023-07-02T08:33:38;29.20;27.40
20610;DHT22;10463;52.378;9.688;2023-07-02T08:36:23;29.20;27.30
20610;DHT22;10463;52.378;9.688;2023-07-02T08:39:07;29.20;27.30
20610;DHT22;10463;52.378;9.688;2023-07-02T08:41:52;29.20;27.30
20610;DHT22;10463;52.378;9.688;2023-07-02T08:44:37;29.20;27.30
20610;DHT22;10463;52.378;9.688;2023-07-02T08:47:24;29.20;27.30
20610;DHT22;10463;52.378;9.688;2023-07-02T08:50:09;29.20;27.30
20610;DHT22;10463;52.378;9.688;2023-07-02T08:52:54;29.20;27.30
20610;DHT22;10463;52.378;9.688;2023-07-02T08:55:39;29.20;27.30
20610;DHT22;10463;52.378;9.688;2023-07-02T08:58:24;29.20;27.20
20610;DHT22;10463;52.378;9.688;2023-07-02T09:01:11;29.20;27.20
20610;DHT22;10463;52.378;9.688;2023-07-02T09:04:00;29.20;27.20
20610;DHT22;10463;52.378;9.688;2023-07-02T09:06:45;29.20;27.20
20610;DHT22;10463;52.378;9.688;2023-07-02T09:09:30;29.20;27.20
20610;DHT22;10463;52.378;9.688;2023-07-02T09:12:27;29.20;27.20
20610;DHT22;10463;52.378;9.688;2023-07-02T09:15:14;29.20;27.20
20610;DHT22;10463;52.378;9.688;2023-07-02T09:17:59;29.20;27.10
20610;DHT22;10463;52.378;9.688;2023-07-02T09:20:46;29.20;27.10
20610;DHT22;10463;52.378;9.688;2023-07-02T09:23:35;29.20;27.10
20610;DHT22;10463;52.378;9.688;2023-07-02T09:26:20;29.20;27.10
20610;DHT22;10463;52.378;9.688;2023-07-02T09:29:05;29.20;27.10
20610;DHT22;10463;52.378;9.688;2023-07-02T09:31:51;29.20;27.10
20610;DHT22;10463;52.378;9.688;2023-07-02T09:34:38;29.20;27.10
20610;DHT22;10463;52.378;9.688;2023-07-02T09:37:26;29.20;27.00
20610;DHT22;10463;52.378;9.688;2023-07-02T09:40:11;29.20;27.00
20610;DHT22;10463;52.378;9.688;2023-07-02T09:42:56;29.20;27.00
20610;DHT22;10463;52.378;9.688;2023-07-02T09:45:44;29.20;27.00
20610;DHT22;10463;52.378;9.688;2023-07-02T09:48:32;29.20;27.00
20610;DHT22;10463;52.378;9.688;2023-07-02T09:51:19;29.20;27.00
20610;DHT22;10463;52.378;9.688;2023-07-02T09:54:05;29.20;27.00
20610;DHT22;10463;52.378;9.688;2023-07-02T09:56:50;29.20;26.90
20610;DHT22;10463;52.378;9.688;2023-07-02T09:59:35;29.20;26.90
20610;DHT22;10463;52.378;9.688;2023-07-02T10:02:20;29.30;27.00
20610;DHT22;10463;52.378;9.688;2023-07-02T10:05:05;29.30;27.00
20610;DHT22;10463;52.378;9.688;2023-07-02T10:07:50;29.30;27.00
20610;DHT22;10463;52.378;9.688;2023-07-02T10:10:36;29.30;27.00
20610;DHT22;10463;52.378;9.688;2023-07-02T10:13:27;29.30;26.90
20610;DHT22;10463;52.378;9.688;2023-07-02T10:16:12;29.20;26.80
20610;DHT22;10463;52.378;9.688;2023-07-02T10:19:08;29.20;26.80
20610;DHT22;10463;52.378;9.688;2023-07-02T10:22:01;29.30;26.90
20610;DHT22;10463;52.378;9.688;2023-07-02T10:24:54;29.30;26.90
20610;DHT22;10463;52.378;9.688;2023-07-02T10:27:43;29.30;26.90
20610;DHT22;10463;52.378;9.688;2023-07-02T10:30:32;29.30;26.90
20610;DHT22;10463;52.378;9.688;2023-07-02T10:33:18;29.30;26.90
20610;DHT22;10463;52.378;9.688;2023-07-02T10:36:04;29.30;26.90
20610;DHT22;10463;52.378;9.688;2023-07-02T10:38:49;29.30;26.80
20610;DHT22;10463;52.378;9.688;2023-07-02T10:41:34;29.30;26.80
20610;DHT22;10463;52.378;9.688;2023-07-02T10:44:20;29.30;26.80
20610;DHT22;10463;52.378;9.688;2023-07-02T10:47:06;29.30;26.80
20610;DHT22;10463;52.378;9.688;2023-07-02T10:49:51;29.30;26.80
20610;DHT22;10463;52.378;9.688;2023-07-02T10:52:39;29.30;26.70
20610;DHT22;10463;52.378;9.688;2023-07-02T10:55:25;29.30;26.70
20610;DHT22;10463;52.378;9.688;2023-07-02T10:58:12;29.30;26.70
20610;DHT22;10463;52.378;9.688;2023-07-02T11:01:00;29.30;26.70
20610;DHT22;10463;52.378;9.688;2023-07-02T11:03:46;29.30;26.70
20610;DHT22;10463;52.378;9.688;2023-07-02T11:06:39;29.30;26.70
20610;DHT22;10463;52.378;9.688;2023-07-02T11:09:25;29.30;26.70
20610;DHT22;10463;52.378;9.688;2023-07-02T11:12:09;29.30;26.70
20610;DHT22;10463;52.378;9.688;2023-07-02T11:14:54;29.30;26.70
20610;DHT22;10463;52.378;9.688;2023-07-02T11:17:41;29.30;26.70
20610;DHT22;10463;52.378;9.688;2023-07-02T11:20:33;29.30;26.70
20610;DHT22;10463;52.378;9.688;2023-07-02T11:23:19;29.30;26.70
20610;DHT22;10463;52.378;9.688;2023-07-02T11:26:04;29.30;26.70
20610;DHT22;10463;52.378;9.688;2023-07-02T11:28:50;29.30;26.70
20610;DHT22;10463;52.378;9.688;2023-07-02T11:31:36;29.30;26.70
20610;DHT22;10463;52.378;9.688;2023-07-02T11:34:22;29.30;26.70
20610;DHT22;10463;52.378;9.688;2023-07-02T11:37:07;29.30;26.70
20610;DHT22;10463;52.378;9.688;2023-07-02T11:39:52;29.30;26.70
20610;DHT22;10463;52.378;9.688;2023-07-02T11:42:37;29.40;26.90
20610;DHT22;10463;52.378;9.688;2023-07-02T11:45:22;29.30;27.10
20610;DHT22;10463;52.378;9.688;2023-07-02T11:48:07;29.40;26.70
20610;DHT22;10463;52.378;9.688;2023-07-02T11:50:53;29.30;26.60
20610;DHT22;10463;52.378;9.688;2023-07-02T11:53:37;29.40;26.70
20610;DHT22;10463;52.378;9.688;2023-07-02T11:56:24;29.40;26.60
20610;DHT22;10463;52.378;9.688;2023-07-02T11:59:09;29.40;26.60
20610;DHT22;10463;52.378;9.688;2023-07-02T12:01:54;29.40;26.70
20610;DHT22;10463;52.378;9.688;2023-07-02T12:04:39;29.40;26.70
20610;DHT22;10463;52.378;9.688;2023-07-02T12:07:25;29.30;26.60
20610;DHT22;10463;52.378;9.688;2023-07-02T12:10:10;29.40;26.70
20610;DHT22;10463;52.378;9.688;2023-07-02T12:12:55;29.40;26.70
20610;DHT22;10463;52.378;9.688;2023-07-02T12:15:39;29.40;26.70
20610;DHT22;10463;52.378;9.688;2023-07-02T12:18:24;29.40;26.70
20610;DHT22;10463;52.378;9.688;2023-07-02T12:21:09;29.40;26.70
20610;DHT22;10463;52.378;9.688;2023-07-02T12:23:55;29.40;26.70
20610;DHT22;10463;52.378;9.688;2023-07-02T12:26:39;29.40;26.70
20610;DHT22;10463;52.378;9.688;2023-07-02T12:29:24;29.40;26.60
20610;DHT22;10463;52.378;9.688;2023-07-02T12:32:09;29.40;26.60
20610;DHT22;10463;52.378;9.688;2023-07-02T12:34:54;29.50;26.70
20610;DHT22;10463;52.378;9.688;2023-07-02T12:37:44;29.40;26.60
20610;DHT22;10463;52.378;9.688;2023-07-02T12:40:30;29.40;26.60
20610;DHT22;10463;52.378;9.688;2023-07-02T12:43:15;29.50;26.70
20610;DHT22;10463;52.378;9.688;2023-07-02T12:45:59;29.50;26.70
20610;DHT22;10463;52.378;9.688;2023-07-02T12:48:44;29.50;26.70
20610;DHT22;10463;52.378;9.688;2023-07-02T12:51:29;29.50;26.60
20610;DHT22;10463;52.378;9.688;2023-07-02T12:54:13;29.50;26.60
20610;DHT22;10463;52.378;9.688;2023-07-02T12:57:00;29.60;26.60
20610;DHT22;10463;52.378;9.688;2023-07-02T12:59:44;29.50;26.60
20610;DHT22;10463;52.378;9.688;2023-07-02T13:02:29;29.50;26.50
20610;DHT22;10463;52.378;9.688;2023-07-02T13:05:14;29.60;27.10
20610;DHT22;10463;52.378;9.688;2023-07-02T13:07:59;29.60;26.60
20610;DHT22;10463;52.378;9.688;2023-07-02T13:10:45;29.60;26.50
20610;DHT22;10463;52.378;9.688;2023-07-02T13:13:31;29.60;26.50
20610;DHT22;10463;52.378;9.688;2023-07-02T13:16:16;29.60;26.50
20610;DHT22;10463;52.378;9.688;2023-07-02T13:19:01;29.60;26.50
20610;DHT22;10463;52.378;9.688;2023-07-02T13:21:46;29.60;26.40
20610;DHT22;10463;52.378;9.688;2023-07-02T13:24:33;29.60;26.40
20610;DHT22;10463;52.378;9.688;2023-07-02T13:27:19;29.70;26.40
20610;DHT22;10463;52.378;9.688;2023-07-02T13:30:08;29.70;26.40
20610;DHT22;10463;52.378;9.688;2023-07-02T13:32:53;29.70;26.40
20610;DHT22;10463;52.378;9.688;2023-07-02T13:35:38;29.70;26.40
20610;DHT22;10463;52.378;9.688;2023-07-02T13:38:23;29.70;26.30
20610;DHT22;10463;52.378;9.688;2023-07-02T13:41:07;29.70;26.30
20610;DHT22;10463;52.378;9.688;2023-07-02T13:43:52;29.70;26.30
20610;DHT22;10463;52.378;9.688;2023-07-02T13:46:38;29.70;26.30
20610;DHT22;10463;52.378;9.688;2023-07-02T13:49:23;29.70;26.30
20610;DHT22;10463;52.378;9.688;2023-07-02T13:52:08;29.70;26.20
20610;DHT22;10463;52.378;9.688;2023-07-02T13:54:52;29.70;26.20
20610;DHT22;10463;52.378;9.688;2023-07-02T13:57:37;29.80;26.20
20610;DHT22;10463;52.378;9.688;2023-07-02T14:00:24;29.80;26.30
20610;DHT22;10463;52.378;9.688;2023-07-02T14:03:08;29.70;26.20
20610;DHT22;10463;52.378;9.688;2023-07-02T14:05:53;29.70;26.20
20610;DHT22;10463;52.378;9.688;2023-07-02T14:08:37;29.80;26.20
20610;DHT22;10463;52.378;9.688;2023-07-02T14:11:24;29.80;26.20
20610;DHT22;10463;52.378;9.688;2023-07-02T14:14:09;29.80;26.20
20610;DHT22;10463;52.378;9.688;2023-07-02T14:16:56;29.80;26.20
20610;DHT22;10463;52.378;9.688;2023-07-02T14:19:40;29.80;26.20
20610;DHT22;10463;52.378;9.688;2023-07-02T14:22:25;29.80;26.20
20610;DHT22;10463;52.378;9.688;2023-07-02T14:25:10;29.80;26.10
20610;DHT22;10463;52.378;9.688;2023-07-02T14:27:55;29.80;26.10
20610;DHT22;10463;52.378;9.688;2023-07-02T14:30:40;29.90;26.20
20610;DHT22;10463;52.378;9.688;2023-07-02T14:33:31;29.80;26.20
20610;DHT22;10463;52.378;9.688;2023-07-02T14:36:16;29.80;26.10
20610;DHT22;10463;52.378;9.688;2023-07-02T14:39:01;29.90;26.20
20610;DHT22;10463;52.378;9.688;2023-07-02T14:41:45;29.90;26.10
20610;DHT22;10463;52.378;9.688;2023-07-02T14:44:30;29.90;26.10
20610;DHT22;10463;52.378;9.688;2023-07-02T14:47:15;29.90;26.10
20610;DHT22;10463;52.378;9.688;2023-07-02T14:50:01;29.90;26.10
20610;DHT22;10463;52.378;9.688;2023-07-02T14:52:45;29.90;26.00
20610;DHT22;10463;52.378;9.688;2023-07-02T14:55:30;29.90;26.00
20610;DHT22;10463;52.378;9.688;2023-07-02T14:58:16;29.90;26.00
20610;DHT22;10463;52.378;9.688;2023-07-02T15:01:01;29.90;26.00
20610;DHT22;10463;52.378;9.688;2023-07-02T15:03:46;30.00;26.00
20610;DHT22;10463;52.378;9.688;2023-07-02T15:06:32;30.00;26.00
20610;DHT22;10463;52.378;9.688;2023-07-02T15:09:17;30.00;26.00
20610;DHT22;10463;52.378;9.688;2023-07-02T15:12:03;30.00;26.00
20610;DHT22;10463;52.378;9.688;2023-07-02T15:14:47;30.00;26.00
20610;DHT22;10463;52.378;9.688;2023-07-02T15:17:32;30.00;25.90
20610;DHT22;10463;52.378;9.688;2023-07-02T15:20:17;30.00;25.90
20610;DHT22;10463;52.378;9.688;2023-07-02T15:23:03;30.00;25.90
20610;DHT22;10463;52.378;9.688;2023-07-02T15:25:52;30.00;25.90
20610;DHT22;10463;52.378;9.688;2023-07-02T15:28:37;30.00;25.80
20610;DHT22;10463;52.378;9.688;2023-07-02T15:31:22;30.00;25.80
20610;DHT22;10463;52.378;9.688;2023-07-02T15:34:06;30.00;25.80
20610;DHT22;10463;52.378;9.688;2023-07-02T15:36:51;30.10;25.90
20610;DHT22;10463;52.378;9.688;2023-07-02T15:39:37;30.10;25.90
20610;DHT22;10463;52.378;9.688;2023-07-02T15:42:22;30.10;25.80
20610;DHT22;10463;52.378;9.688;2023-07-02T15:45:09;30.10;25.80
20610;DHT22;10463;52.378;9.688;2023-07-02T15:47:54;30.10;25.80
20610;DHT22;10463;52.378;9.688;2023-07-02T15:50:39;30.10;25.80
20610;DHT22;10463;52.378;9.688;2023-07-02T15:53:24;30.10;25.80
20610;DHT22;10463;52.378;9.688;2023-07-02T15:56:11;30.10;25.70
20610;DHT22;10463;52.378;9.688;2023-07-02T15:58:55;30.10;25.70
20610;DHT22;10463;52.378;9.688;2023-07-02T16:01:40;30.10;25.70
20610;DHT22;10463;52.378;9.688;2023-07-02T16:04:27;30.10;25.70
20610;DHT22;10463;52.378;9.688;2023-07-02T16:07:11;30.10;25.60
20610;DHT22;10463;52.378;9.688;2023-07-02T16:09:58;30.20;25.60
20610;DHT22;10463;52.378;9.688;2023-07-02T16:12:44;30.20;25.60
20610;DHT22;10463;52.378;9.688;2023-07-02T16:15:29;30.20;25.50
20610;DHT22;10463;52.378;9.688;2023-07-02T16:18:14;30.20;25.50
20610;DHT22;10463;52.378;9.688;2023-07-02T16:21:01;30.20;25.50
20610;DHT22;10463;52.378;9.688;2023-07-02T16:23:46;30.20;25.50
20610;DHT22;10463;52.378;9.688;2023-07-02T16:26:31;30.20;25.50
20610;DHT22;10463;52.378;9.688;2023-07-02T16:29:18;30.20;25.50
20610;DHT22;10463;52.378;9.688;2023-07-02T16:32:04;30.20;25.40
20610;DHT22;10463;52.378;9.688;2023-07-02T16:34:49;30.20;25.40
20610;DHT22;10463;52.378;9.688;2023-07-02T16:37:34;30.20;25.30
20610;DHT22;10463;52.378;9.688;2023-07-02T16:40:19;30.20;25.20
20610;DHT22;10463;52.378;9.688;2023-07-02T16:43:04;30.20;25.20
20610;DHT22;10463;52.378;9.688;2023-07-02T16:45:52;30.20;25.20
20610;DHT22;10463;52.378;9.688;2023-07-02T16:48:37;30.20;25.20
20610;DHT22;10463;52.378;9.688;2023-07-02T16:51:22;30.20;25.10
20610;DHT22;10463;52.378;9.688;2023-07-02T16:54:07;30.20;25.00
20610;DHT22;10463;52.378;9.688;2023-07-02T16:56:56;30.20;25.00
20610;DHT22;10463;52.378;9.688;2023-07-02T16:59:41;30.20;25.00
20610;DHT22;10463;52.378;9.688;2023-07-02T17:02:28;30.20;25.00
20610;DHT22;10463;52.378;9.688;2023-07-02T17:05:13;30.20;25.00
20610;DHT22;10463;52.378;9.688;2023-07-02T17:07:58;30.20;25.00
20610;DHT22;10463;52.378;9.688;2023-07-02T17:10:43;30.20;25.00
20610;DHT22;10463;52.378;9.688;2023-07-02T17:13:27;30.20;25.00
20610;DHT22;10463;52.378;9.688;2023-07-02T17:16:12;30.20;25.00
20610;DHT22;10463;52.378;9.688;2023-07-02T17:18:58;30.20;25.00
20610;DHT22;10463;52.378;9.688;2023-07-02T17:21:45;30.20;25.00
20610;DHT22;10463;52.378;9.688;2023-07-02T17:24:34;30.20;25.00